Aviation Digital Data Service (ADDS)

Output produced by METARs form (0741 UTC 19 February 2019)
found at http://www.aviationweather.gov/metar/data/
 
Forecast for: WBKS (SANDAKAN/KALIMAN, MY)
Text: TAF WBKS 190500Z 1906/2006 06010KT 9999 FEW015
Forecast period: 0600 UTC 19 February 2019 to 0600 UTC 20 February 2019
Forecast type: FROM: standard forecast or significant change
Winds: from the ENE (60 degrees) at 12 MPH (10 knots; 5.1 m/s)
Visibility: 6 or more miles 10+ km)
Ceiling: at least 12,000 feet AGL
Clouds: few clouds at 1500 feet AGL
Weather: no significant weather forecast for this period
Text: TEMPO 1906/1910 3000 RA SCT014 FEW016CB SCT040
Forecast period: 0600 to 1000 UTC 19 February 2019
Forecast type: TEMPORARY: The following changes expected for less than half the time period
Visibility: 1.86 miles (2.99 km)
Ceiling: at least 12,000 feet AGL
Clouds: scattered clouds at 1400 feet AGL
few clouds at 1600 feet AGL
scattered clouds at 4000 feet AGL
Weather: RA  (moderate rain)